Observation data for Friona on 01/11/2018      Previous  Date  Next       Current Mesonet Observations  Soil Data  Daily Summary Page  Observations in Plain Language
KFAS 110600Z 27019G25KT 08/M02 A2951 RMK A01 T00761018  RH  052%=      5-min Rain = 0
KFAS 110605Z 27020G28KT 08/M02 A2951 RMK A01 T00771018  RH  051%=      5-min Rain = 0
KFAS 110610Z 27019G24KT 08/M02 A2952 RMK A01 T00771018  RH  051%=      5-min Rain = 0
KFAS 110615Z 27019G24KT 08/M02 A2952 RMK A01 T00761017  RH  052%=      5-min Rain = 0
KFAS 110620Z 27019G25KT 08/M02 A2952 RMK A01 T00751017  RH  052%=      5-min Rain = 0
KFAS 110625Z 27018KT 07/M02 A2953 RMK A01 T00741017  RH  053%=      5-min Rain = 0
KFAS 110630Z 27016KT 07/M02 A2953 RMK A01 T00721017  RH  054%=      5-min Rain = 0
KFAS 110635Z 27014KT 07/M02 A2954 RMK A01 T00711017  RH  054%=      5-min Rain = 0
KFAS 110640Z 27014KT 07/M02 A2954 RMK A01 T00701016  RH  054%=      5-min Rain = 0
KFAS 110645Z 27014KT 07/M02 A2955 RMK A01 T00701016  RH  055%=      5-min Rain = 0
KFAS 110650Z 28014KT 07/M02 A2956 RMK A01 T00691016  RH  055%=      5-min Rain = 0
KFAS 110655Z 28014KT 07/M02 A2957 RMK A01 T00681017  RH  055%=      5-min Rain = 0
KFAS 110700Z 29014KT 07/M02 A2958 RMK A01 T00681017  RH  055%=      5-min Rain = 0
KFAS 110705Z 30018G28KT 08/M02 A2959 RMK A01 T00771015  RH  053%=      5-min Rain = 0
KFAS 110710Z 32020G31KT 09/M01 A2959 RMK A01 T00871006  RH  053%=      5-min Rain = 0
KFAS 110715Z 32025G32KT 10/01 A296 RMK A01 T00980008  RH  054%=      5-min Rain = 0
KFAS 110720Z 33026G36KT 10/02 A296 RMK A01 T01010015  RH  056%=      5-min Rain = 0
KFAS 110725Z 33028G37KT 10/02 A2961 RMK A01 T00990022  RH  060%=      5-min Rain = 0
KFAS 110730Z 34024G31KT 10/03 A2961 RMK A01 T00950025  RH  063%=      5-min Rain = 0
KFAS 110735Z 34022G28KT 09/03 A2962 RMK A01 T00930026  RH  064%=      5-min Rain = 0
KFAS 110740Z 35027G35KT 09/03 A2963 RMK A01 T00930027  RH  065%=      5-min Rain = 0
KFAS 110745Z 35027G38KT 09/03 A2963 RMK A01 T00910028  RH  066%=      5-min Rain = 0
KFAS 110750Z 35026G32KT 09/03 A2963 RMK A01 T00900029  RH  067%=      5-min Rain = 0
KFAS 110755Z 36030G37KT 09/03 A2963 RMK A01 T00890029  RH  067%=      5-min Rain = 0
KFAS 110800Z 36027G35KT 09/03 A2963 RMK A01 T00870030  RH  069%=      5-min Rain = 0
KFAS 110805Z 36028G38KT 08/03 A2963 RMK A01 T00840031  RH  070%=      5-min Rain = 0
KFAS 110810Z 36029G36KT 08/03 A2964 RMK A01 T00820032  RH  072%=      5-min Rain = 0
KFAS 110815Z 36028G37KT 08/03 A2964 RMK A01 T00800033  RH  074%=      5-min Rain = 0
KFAS 110820Z 36030G38KT 08/03 A2965 RMK A01 T00780033  RH  074%=      5-min Rain = 0
KFAS 110825Z 36025G33KT 08/03 A2966 RMK A01 T00760034  RH  076%=      5-min Rain = 0
KFAS 110830Z 36026G34KT 07/04 A2966 RMK A01 T00740035  RH  078%=      5-min Rain = 0
KFAS 110835Z 36028G36KT 07/04 A2967 RMK A01 T00720037  RH  080%=      5-min Rain = 0
KFAS 110840Z 00031G44KT 07/03 A2967 RMK A01 T00700033  RH  079%=      5-min Rain = 0
KFAS 110845Z 36028G39KT 07/03 A2967 RMK A01 T00670026  RH  077%=      5-min Rain = 0
KFAS 110850Z 00029G38KT 07/02 A2968 RMK A01 T00650023  RH  076%=      5-min Rain = 0
KFAS 110855Z 00027G36KT 06/02 A2968 RMK A01 T00620022  RH  077%=      5-min Rain = 0
KFAS 110900Z 00025G30KT 06/02 A2969 RMK A01 T00590022  RH  078%=      5-min Rain = 0
KFAS 110905Z 36023G28KT 06/02 A2969 RMK A01 T00570022  RH  079%=      5-min Rain = 0
KFAS 110910Z 36023G34KT 06/02 A297 RMK A01 T00550019  RH  079%=      5-min Rain = 0
KFAS 110915Z 36025G33KT 05/02 A297 RMK A01 T00540015  RH  077%=      5-min Rain = 0
KFAS 110920Z 35028G37KT 05/01 A2971 RMK A01 T00540013  RH  076%=      5-min Rain = 0
KFAS 110925Z 35028G34KT 05/01 A2971 RMK A01 T00530011  RH  075%=      5-min Rain = 0
KFAS 110930Z 35027G35KT 05/01 A2972 RMK A01 T00520010  RH  075%=      5-min Rain = 0
KFAS 110935Z 35029G35KT 05/01 A2972 RMK A01 T00510008  RH  075%=      5-min Rain = 0
KFAS 110940Z 35031G38KT 05/01 A2973 RMK A01 T00500006  RH  074%=      5-min Rain = 0
KFAS 110945Z 35027G39KT 05/01 A2974 RMK A01 T00490006  RH  075%=      5-min Rain = 0
KFAS 110950Z 35027G35KT 05/01 A2974 RMK A01 T00480006  RH  075%=      5-min Rain = 0
KFAS 110955Z 35028G34KT 05/01 A2975 RMK A01 T00470006  RH  076%=      5-min Rain = 0
KFAS 111000Z 35027G32KT 05/01 A2975 RMK A01 T00460006  RH  076%=      5-min Rain = 0
KFAS 111005Z 35028G35KT 05/01 A2976 RMK A01 T00450005  RH  076%=      5-min Rain = 0
KFAS 111010Z 35028G35KT 04/00 A2976 RMK A01 T00440004  RH  076%=      5-min Rain = 0
KFAS 111015Z 35026G32KT 04/00 A2977 RMK A01 T00430003  RH  076%=      5-min Rain = 0
KFAS 111020Z 35026G31KT 04/00 A2977 RMK A01 T00420002  RH  076%=      5-min Rain = 0
KFAS 111025Z 35023G33KT 04/00 A2978 RMK A01 T00420001  RH  076%=      5-min Rain = 0
KFAS 111030Z 35021G27KT 04/00 A2979 RMK A01 T00410001  RH  076%=      5-min Rain = 0
KFAS 111035Z 34023G29KT 04/00 A2979 RMK A01 T00390001  RH  077%=      5-min Rain = 0
KFAS 111040Z 35024G33KT 04/M00 A2978 RMK A01 T00371001  RH  077%=      5-min Rain = 0
KFAS 111045Z 35028G34KT 04/M00 A2978 RMK A01 T00361003  RH  076%=      5-min Rain = 0
KFAS 111050Z 35027G35KT 04/M00 A2979 RMK A01 T00351004  RH  076%=      5-min Rain = 0
KFAS 111055Z 34027G35KT 03/M00 A298 RMK A01 T00341002  RH  078%=      5-min Rain = 0
KFAS 111100Z 34028G37KT 03/M00 A298 RMK A01 T00301003  RH  079%=      5-min Rain = 0
KFAS 111105Z 35025G33KT 03/M01 A2981 RMK A01 T00291005  RH  080%=      5-min Rain = 0
KFAS 111110Z 34026G34KT 03/M01 A2982 RMK A01 T00281006  RH  079%=      5-min Rain = 0
KFAS 111115Z 35030G37KT 03/M01 A2982 RMK A01 T00261010  RH  078%=      5-min Rain = 0
KFAS 111120Z 35027G32KT 03/M01 A2982 RMK A01 T00261013  RH  076%=      5-min Rain = 0
KFAS 111125Z 36027G33KT 03/M02 A2982 RMK A01 T00251015  RH  076%=      5-min Rain = 0
KFAS 111130Z 35023G30KT 02/M02 A2983 RMK A01 T00241015  RH  076%=      5-min Rain = 0
KFAS 111135Z 35025G31KT 02/M01 A2983 RMK A01 T00221014  RH  077%=      5-min Rain = 0
KFAS 111140Z 35020G27KT 02/M01 A2984 RMK A01 T00211014  RH  079%=      5-min Rain = 0
KFAS 111145Z 34022G29KT 02/M02 A2985 RMK A01 T00201015  RH  079%=      5-min Rain = 0
KFAS 111150Z 35023G32KT 02/M02 A2986 RMK A01 T00201017  RH  077%=      5-min Rain = 0
KFAS 111155Z 35025G32KT 02/M02 A2986 RMK A01 T00191024  RH  074%=      5-min Rain = 0
KFAS 111200Z 35024G30KT 02/M03 A2987 RMK A01 T00171029  RH  072%=      5-min Rain = 0
KFAS 111205Z 35027G34KT 02/M04 A2987 RMK A01 T00151037  RH  069%=      5-min Rain = 0
KFAS 111210Z 35028G36KT 01/M04 A2988 RMK A01 T00141040  RH  067%=      5-min Rain = 0
KFAS 111215Z 35029G36KT 01/M04 A2988 RMK A01 T00131044  RH  066%=      5-min Rain = 0
KFAS 111220Z 36028G34KT 01/M05 A2988 RMK A01 T00111046  RH  066%=      5-min Rain = 0
KFAS 111225Z 36024G32KT 01/M05 A2989 RMK A01 T00081046  RH  067%=      5-min Rain = 0
KFAS 111230Z 36025G32KT 01/M05 A2989 RMK A01 T00061047  RH  068%=      5-min Rain = 0
KFAS 111235Z 36023G28KT 01/M05 A299 RMK A01 T00051047  RH  069%=      5-min Rain = 0
KFAS 111240Z 36024G31KT 00/M05 A299 RMK A01 T00041047  RH  069%=      5-min Rain = 0
KFAS 111245Z 00024G31KT 00/M05 A2991 RMK A01 T00021048  RH  069%=      5-min Rain = 0
KFAS 111250Z 36022G29KT 00/M05 A2991 RMK A01 T00011047  RH  070%=      5-min Rain = 0
KFAS 111255Z 36022G28KT 00/M05 A2992 RMK A01 T00011047  RH  070%=      5-min Rain = 0
KFAS 111300Z 35020G28KT 00/05 A2992 RMK A01 T00-00-46  RH  071%=      5-min Rain = 0
KFAS 111305Z 35024G29KT 00/05 A2992 RMK A01 T00-00-46  RH  071%=      5-min Rain = 0
KFAS 111310Z 35027G34KT M00/M05 A2993 RMK A01 T10021050  RH  070%=      5-min Rain = 0
KFAS 111315Z 35029G38KT M01/M06 A2993 RMK A01 T10051055  RH  069%=      5-min Rain = 0
KFAS 111320Z 35028G35KT M01/M06 A2994 RMK A01 T10071058  RH  068%=      5-min Rain = 0
KFAS 111325Z 35026G32KT M01/M06 A2994 RMK A01 T10091059  RH  069%=      5-min Rain = 0
KFAS 111330Z 35025G30KT M01/M06 A2994 RMK A01 T10101061  RH  068%=      5-min Rain = 0
KFAS 111335Z 35025G30KT M01/M06 A2995 RMK A01 T10101062  RH  068%=      5-min Rain = 0
KFAS 111340Z 35023G29KT M01/M06 A2995 RMK A01 T10111061  RH  069%=      5-min Rain = 0
KFAS 111345Z 35022G30KT M01/M06 A2996 RMK A01 T10121062  RH  069%=      5-min Rain = 0
KFAS 111350Z 35023G29KT M01/M06 A2996 RMK A01 T10121063  RH  068%=      5-min Rain = 0
KFAS 111355Z 35021G27KT M01/M06 A2997 RMK A01 T10121064  RH  068%=      5-min Rain = 0
KFAS 111400Z 35020G26KT M01/M07 A2997 RMK A01 T10131066  RH  068%=      5-min Rain = 0
KFAS 111405Z 35020G26KT M01/M07 A2997 RMK A01 T10141066  RH  068%=      5-min Rain = 0
KFAS 111410Z 35020G26KT M02/M07 A2998 RMK A01 T10151066  RH  068%=      5-min Rain = 0
KFAS 111415Z 35020KT M02/M07 A2998 RMK A01 T10151065  RH  069%=      5-min Rain = 0
KFAS 111420Z 35020G25KT M02/M07 A2998 RMK A01 T10151065  RH  069%=      5-min Rain = 0
KFAS 111425Z 35020G28KT M02/M07 A2999 RMK A01 T10151065  RH  069%=      5-min Rain = 0
KFAS 111430Z 35020G26KT M02/M07 A30 RMK A01 T10151065  RH  069%=      5-min Rain = 0
KFAS 111435Z 35020G25KT M02/M07 A30 RMK A01 T10151065  RH  068%=      5-min Rain = 0
KFAS 111440Z 35021G27KT M01/M07 A3001 RMK A01 T10141065  RH  068%=      5-min Rain = 0
KFAS 111445Z 35021G29KT M01/M07 A3002 RMK A01 T10141066  RH  068%=      5-min Rain = 0
KFAS 111450Z 35021KT M01/M07 A3002 RMK A01 T10131066  RH  067%=      5-min Rain = 0
KFAS 111455Z 35020G26KT M01/M07 A3003 RMK A01 T10121067  RH  066%=      5-min Rain = 0
KFAS 111500Z 35021G26KT M01/M07 A3004 RMK A01 T10091067  RH  065%=      5-min Rain = 0
KFAS 111505Z 35021G27KT M01/M07 A3004 RMK A01 T10061066  RH  064%=      5-min Rain = 0
KFAS 111510Z 35021G26KT M00/M07 A3004 RMK A01 T10041067  RH  062%=      5-min Rain = 0
KFAS 111515Z 35023G29KT M00/M07 A3005 RMK A01 T10021068  RH  061%=      5-min Rain = 0
KFAS 111520Z 35025G31KT 00/07 A3006 RMK A01 T00-00-70  RH  059%=      5-min Rain = 0
KFAS 111525Z 36026G33KT 00/M07 A3006 RMK A01 T00021072  RH  058%=      5-min Rain = 0
KFAS 111530Z 35024G31KT 00/M07 A3006 RMK A01 T00041071  RH  057%=      5-min Rain = 0
KFAS 111535Z 35027G33KT 00/M07 A3007 RMK A01 T00031074  RH  056%=      5-min Rain = 0
KFAS 111540Z 35027G34KT 01/M07 A3007 RMK A01 T00051074  RH  056%=      5-min Rain = 0
KFAS 111545Z 35025G35KT 01/M08 A3008 RMK A01 T00051075  RH  055%=      5-min Rain = 0
KFAS 111550Z 00025G31KT 01/M08 A3008 RMK A01 T00061077  RH  054%=      5-min Rain = 0
KFAS 111555Z 00027G35KT 01/M08 A3009 RMK A01 T00061081  RH  052%=      5-min Rain = 0
KFAS 111600Z 36024G32KT 01/M08 A3009 RMK A01 T00071079  RH  053%=      5-min Rain = 0
KFAS 111605Z 01025G34KT 01/M08 A3009 RMK A01 T00081079  RH  052%=      5-min Rain = 0
KFAS 111610Z 01026G33KT 01/M08 A301 RMK A01 T00101079  RH  052%=      5-min Rain = 0
KFAS 111615Z 00025G33KT 01/M08 A301 RMK A01 T00121078  RH  051%=      5-min Rain = 0
KFAS 111620Z 00024G34KT 02/M08 A3011 RMK A01 T00151078  RH  050%=      5-min Rain = 0
KFAS 111625Z 00024G31KT 02/M08 A3011 RMK A01 T00151077  RH  050%=      5-min Rain = 0
KFAS 111630Z 36027G34KT 02/M08 A3012 RMK A01 T00181080  RH  048%=      5-min Rain = 0
KFAS 111635Z 36025G30KT 02/M08 A3012 RMK A01 T00181078  RH  049%=      5-min Rain = 0
KFAS 111640Z 36023G30KT 02/M08 A3012 RMK A01 T00211077  RH  048%=      5-min Rain = 0
KFAS 111645Z 35025G31KT 02/M08 A3013 RMK A01 T00221078  RH  048%=      5-min Rain = 0
KFAS 111650Z 00024G30KT 02/M08 A3013 RMK A01 T00221079  RH  047%=      5-min Rain = 0
KFAS 111655Z 00024G31KT 02/M08 A3013 RMK A01 T00241079  RH  046%=      5-min Rain = 0
KFAS 111700Z 00023G30KT 03/M08 A3014 RMK A01 T00281079  RH  045%=      5-min Rain = 0
KFAS 111705Z 00026G32KT 03/M08 A3014 RMK A01 T00281082  RH  044%=      5-min Rain = 0
KFAS 111710Z 00024G29KT 03/M08 A3014 RMK A01 T00281081  RH  044%=      5-min Rain = 0
KFAS 111715Z 36024G30KT 03/M08 A3015 RMK A01 T00301082  RH  043%=      5-min Rain = 0
KFAS 111720Z 36023G29KT 03/M08 A3015 RMK A01 T00321081  RH  043%=      5-min Rain = 0
KFAS 111725Z 36023G30KT 03/M08 A3016 RMK A01 T00321081  RH  043%=      5-min Rain = 0
KFAS 111730Z 00025G30KT 03/M09 A3016 RMK A01 T00341085  RH  041%=      5-min Rain = 0
KFAS 111735Z 00026G33KT 03/M09 A3016 RMK A01 T00341086  RH  041%=      5-min Rain = 0
KFAS 111740Z 00027G34KT 04/M09 A3016 RMK A01 T00351088  RH  040%=      5-min Rain = 0
KFAS 111745Z 36024G31KT 04/M09 A3016 RMK A01 T00371085  RH  040%=      5-min Rain = 0
KFAS 111750Z 36026G33KT 04/M09 A3016 RMK A01 T00401087  RH  039%=      5-min Rain = 0
KFAS 111755Z 01024G31KT 04/M09 A3017 RMK A01 T00401087  RH  039%=      5-min Rain = 0
KFAS 111800Z 36021G26KT 04/M08 A3017 RMK A01 T00421083  RH  039%=      5-min Rain = 0
KFAS 111805Z 35024G29KT 04/M09 A3017 RMK A01 T00441085  RH  039%=      5-min Rain = 0
KFAS 111810Z 36023G28KT 04/M09 A3018 RMK A01 T00431087  RH  038%=      5-min Rain = 0
KFAS 111815Z 35020G28KT 05/M08 A3018 RMK A01 T00461084  RH  038%=      5-min Rain = 0
KFAS 111820Z 35022KT 05/M09 A3018 RMK A01 T00491085  RH  037%=      5-min Rain = 0
KFAS 111825Z 35022G29KT 05/M09 A3018 RMK A01 T00491087  RH  036%=      5-min Rain = 0
KFAS 111830Z 36022G28KT 05/M09 A3018 RMK A01 T00501088  RH  036%=      5-min Rain = 0
KFAS 111835Z 35022KT 05/M09 A3017 RMK A01 T00531087  RH  036%=      5-min Rain = 0
KFAS 111840Z 36021G26KT 05/M09 A3017 RMK A01 T00531090  RH  035%=      5-min Rain = 0
KFAS 111845Z 35022G28KT 06/M09 A3016 RMK A01 T00551088  RH  035%=      5-min Rain = 0
KFAS 111850Z 36021G29KT 06/M09 A3017 RMK A01 T00571089  RH  034%=      5-min Rain = 0
KFAS 111855Z 35022KT 06/M09 A3017 RMK A01 T00571090  RH  034%=      5-min Rain = 0
KFAS 111900Z 35022G30KT 06/M09 A3017 RMK A01 T00561090  RH  034%=      5-min Rain = 0
KFAS 111905Z 36021G29KT 06/M09 A3017 RMK A01 T00561091  RH  034%=      5-min Rain = 0
KFAS 111910Z 35019G26KT 06/M09 A3017 RMK A01 T00591091  RH  033%=      5-min Rain = 0
KFAS 111915Z 35021G30KT 06/M09 A3017 RMK A01 T00591093  RH  032%=      5-min Rain = 0
KFAS 111920Z 36021G30KT 06/M09 A3017 RMK A01 T00601093  RH  032%=      5-min Rain = 0
KFAS 111925Z 35021G28KT 06/M09 A3017 RMK A01 T00631093  RH  032%=      5-min Rain = 0
KFAS 111930Z 36023G30KT 06/M09 A3017 RMK A01 T00631094  RH  031%=      5-min Rain = 0
KFAS 111935Z 00022G29KT 06/M10 A3017 RMK A01 T00621096  RH  031%=      5-min Rain = 0
KFAS 111940Z 36020G28KT 06/M09 A3017 RMK A01 T00631093  RH  032%=      5-min Rain = 0
KFAS 111945Z 35022G29KT 06/M09 A3017 RMK A01 T00641093  RH  031%=      5-min Rain = 0
KFAS 111950Z 36019G24KT 07/M09 A3017 RMK A01 T00661093  RH  031%=      5-min Rain = 0
KFAS 111955Z 35019G26KT 07/M09 A3017 RMK A01 T00661092  RH  031%=      5-min Rain = 0
KFAS 112000Z 01017G25KT 07/M09 A3017 RMK A01 T00701093  RH  030%=      5-min Rain = 0
KFAS 112005Z 35019G25KT 07/M09 A3017 RMK A01 T00701093  RH  030%=      5-min Rain = 0
KFAS 112010Z 36019G24KT 07/M09 A3017 RMK A01 T00701093  RH  030%=      5-min Rain = 0
KFAS 112015Z 36019G24KT 07/M10 A3017 RMK A01 T00721095  RH  029%=      5-min Rain = 0
KFAS 112020Z 35019G26KT 07/M09 A3017 RMK A01 T00711093  RH  030%=      5-min Rain = 0
KFAS 112025Z 35018G23KT 07/M09 A3017 RMK A01 T00731094  RH  029%=      5-min Rain = 0
KFAS 112030Z 36021KT 07/M10 A3017 RMK A01 T00721097  RH  029%=      5-min Rain = 0
KFAS 112035Z 36021G26KT 07/M10 A3017 RMK A01 T00711099  RH  029%=      5-min Rain = 0
KFAS 112040Z 01021G26KT 07/M10 A3017 RMK A01 T00711098  RH  029%=      5-min Rain = 0
KFAS 112045Z 34020KT 07/M10 A3018 RMK A01 T00731096  RH  029%=      5-min Rain = 0
KFAS 112050Z 35020G28KT 07/M10 A3018 RMK A01 T00711096  RH  029%=      5-min Rain = 0
KFAS 112055Z 35020G25KT 07/M10 A3018 RMK A01 T00701096  RH  029%=      5-min Rain = 0
KFAS 112100Z 35019G30KT 07/M10 A3018 RMK A01 T00711097  RH  029%=      5-min Rain = 0
KFAS 112105Z 35022G30KT 07/M10 A3018 RMK A01 T00701099  RH  029%=      5-min Rain = 0
KFAS 112110Z 35021G27KT 07/M10 A3018 RMK A01 T00711099  RH  029%=      5-min Rain = 0
KFAS 112115Z 35020G25KT 07/M10 A3018 RMK A01 T00691098  RH  029%=      5-min Rain = 0
KFAS 112120Z 34019KT 07/M10 A3019 RMK A01 T00701098  RH  029%=      5-min Rain = 0
KFAS 112125Z 00018G23KT 07/M10 A3018 RMK A01 T00711100  RH  028%=      5-min Rain = 0
KFAS 112130Z 36016G24KT 07/M10 A3018 RMK A01 T00721098  RH  029%=      5-min Rain = 0
KFAS 112135Z 36018G24KT 07/M10 A3019 RMK A01 T00711099  RH  029%=      5-min Rain = 0
KFAS 112140Z 35017G23KT 07/M10 A3019 RMK A01 T00711098  RH  029%=      5-min Rain = 0
KFAS 112145Z 36016G22KT 07/M10 A3019 RMK A01 T00691100  RH  029%=      5-min Rain = 0
KFAS 112150Z 36016KT 07/M10 A3019 RMK A01 T00711097  RH  029%=      5-min Rain = 0
KFAS 112155Z 00016G21KT 07/M10 A3019 RMK A01 T00701101  RH  028%=      5-min Rain = 0
KFAS 112200Z 00017KT 07/M10 A3019 RMK A01 T00681101  RH  029%=      5-min Rain = 0
KFAS 112205Z 00017G25KT 07/M10 A302 RMK A01 T00671101  RH  029%=      5-min Rain = 0
KFAS 112210Z 00016G21KT 07/M10 A302 RMK A01 T00671102  RH  029%=      5-min Rain = 0
KFAS 112215Z 35016KT 07/M10 A302 RMK A01 T00651101  RH  029%=      5-min Rain = 0
KFAS 112220Z 36016KT 07/M10 A302 RMK A01 T00651103  RH  029%=      5-min Rain = 0
KFAS 112225Z 35014G21KT 07/M10 A3021 RMK A01 T00661102  RH  029%=      5-min Rain = 0
KFAS 112230Z 35017KT 06/M10 A3021 RMK A01 T00631104  RH  029%=      5-min Rain = 0
KFAS 112235Z 36014KT 06/M11 A3021 RMK A01 T00611105  RH  029%=      5-min Rain = 0
KFAS 112240Z 36014KT 06/M10 A3021 RMK A01 T00611103  RH  030%=      5-min Rain = 0
KFAS 112245Z 36013KT 06/M10 A3021 RMK A01 T00611102  RH  030%=      5-min Rain = 0
KFAS 112250Z 00014KT 06/M10 A3022 RMK A01 T00601103  RH  030%=      5-min Rain = 0
KFAS 112255Z 36012G17KT 06/M10 A3022 RMK A01 T00591103  RH  030%=      5-min Rain = 0
KFAS 112300Z 35012KT 06/M10 A3022 RMK A01 T00591102  RH  030%=      5-min Rain = 0
KFAS 112305Z 01013KT 06/M10 A3022 RMK A01 T00581104  RH  030%=      5-min Rain = 0
KFAS 112310Z 02014KT 06/M11 A3022 RMK A01 T00561106  RH  030%=      5-min Rain = 0
KFAS 112315Z 01013KT 05/M11 A3023 RMK A01 T00541106  RH  030%=      5-min Rain = 0
KFAS 112320Z 00009KT 05/M11 A3023 RMK A01 T00531106  RH  031%=      5-min Rain = 0
KFAS 112325Z 01009KT 05/M11 A3023 RMK A01 T00521105  RH  031%=      5-min Rain = 0
KFAS 112330Z 01009KT 05/M11 A3023 RMK A01 T00501105  RH  031%=      5-min Rain = 0
KFAS 112335Z 01008KT 05/M11 A3023 RMK A01 T00471105  RH  032%=      5-min Rain = 0
KFAS 112340Z 01007KT 04/M11 A3024 RMK A01 T00431106  RH  033%=      5-min Rain = 0
KFAS 112345Z 01007KT 04/M11 A3024 RMK A01 T00411106  RH  033%=      5-min Rain = 0
KFAS 112350Z 01006KT 04/M11 A3024 RMK A01 T00351106  RH  034%=      5-min Rain = 0
KFAS 112355Z 01006KT 03/M11 A3024 RMK A01 T00301106  RH  036%=      5-min Rain = 0
KFAS 120000Z 01005KT 03/M11 A3024 RMK A01 T00271106  RH  037%=      5-min Rain = 0
KFAS 120005Z 02004KT 03/M11 A3024 RMK A01 T00251107  RH  037%=      5-min Rain = 0
KFAS 120010Z 02004KT 02/M11 A3024 RMK A01 T00211106  RH  038%=      5-min Rain = 0
KFAS 120015Z 03005KT 02/M11 A3024 RMK A01 T00201106  RH  039%=      5-min Rain = 0
KFAS 120020Z 03005KT 02/M11 A3024 RMK A01 T00201106  RH  039%=      5-min Rain = 0
KFAS 120025Z 03005KT 02/M11 A3024 RMK A01 T00191107  RH  039%=      5-min Rain = 0
KFAS 120030Z 04005KT 02/M11 A3024 RMK A01 T00181105  RH  039%=      5-min Rain = 0
KFAS 120035Z 04006KT 02/M11 A3024 RMK A01 T00181105  RH  039%=      5-min Rain = 0
KFAS 120040Z 04007KT 01/M11 A3024 RMK A01 T00141105  RH  040%=      5-min Rain = 0
KFAS 120045Z 04007KT 01/M11 A3024 RMK A01 T00101107  RH  041%=      5-min Rain = 0
KFAS 120050Z 03007KT 01/M11 A3024 RMK A01 T00061107  RH  042%=      5-min Rain = 0
KFAS 120055Z 03007KT 00/M11 A3024 RMK A01 T00031107  RH  043%=      5-min Rain = 0
KFAS 120100Z 04007KT 00/11 A3025 RMK A01 T00000-107  RH  044%=      5-min Rain = 0
KFAS 120105Z 04006KT 00/11 A3025 RMK A01 T00000-107  RH  044%=      5-min Rain = 0
KFAS 120110Z 05007KT M00/M11 A3025 RMK A01 T10011105  RH  045%=      5-min Rain = 0
KFAS 120115Z 05007KT M00/M10 A3025 RMK A01 T10021101  RH  047%=      5-min Rain = 0
KFAS 120120Z 05006KT M01/M11 A3025 RMK A01 T10051108  RH  045%=      5-min Rain = 0
KFAS 120125Z 08003KT M02/M12 A3025 RMK A01 T10231116  RH  049%=      5-min Rain = 0
KFAS 120130Z 08002KT M03/M11 A3025 RMK A01 T10281111  RH  053%=      5-min Rain = 0
KFAS 120135Z 06005KT M02/M11 A3025 RMK A01 T10221108  RH  052%=      5-min Rain = 0
KFAS 120140Z 06003KT M02/M11 A3025 RMK A01 T10191106  RH  051%=      5-min Rain = 0
KFAS 120145Z 10002KT M02/M11 A3025 RMK A01 T10181108  RH  050%=      5-min Rain = 0
KFAS 120150Z 09003KT M02/M11 A3025 RMK A01 T10201109  RH  050%=      5-min Rain = 0
KFAS 120155Z 09003KT M02/M11 A3025 RMK A01 T10241114  RH  050%=      5-min Rain = 0
KFAS 120200Z 07004KT M03/M11 A3025 RMK A01 T10251105  RH  054%=      5-min Rain = 0
KFAS 120205Z 06004KT M02/M11 A3025 RMK A01 T10221107  RH  052%=      5-min Rain = 0
KFAS 120210Z 07004KT M02/M10 A3025 RMK A01 T10231103  RH  054%=      5-min Rain = 0
KFAS 120215Z 09004KT M03/M11 A3025 RMK A01 T10261109  RH  053%=      5-min Rain = 0
KFAS 120220Z 10003KT M03/M11 A3025 RMK A01 T10261109  RH  053%=      5-min Rain = 0
KFAS 120225Z 09004KT M02/M11 A3025 RMK A01 T10231106  RH  053%=      5-min Rain = 0
KFAS 120230Z 07003KT M03/M11 A3025 RMK A01 T10261107  RH  053%=      5-min Rain = 0
KFAS 120235Z 09003KT M03/M10 A3025 RMK A01 T10271103  RH  056%=      5-min Rain = 0
KFAS 120240Z 11003KT M03/M10 A3025 RMK A01 T10251101  RH  056%=      5-min Rain = 0
KFAS 120245Z 10004KT M02/M11 A3025 RMK A01 T10241105  RH  053%=      5-min Rain = 0
KFAS 120250Z 08003KT M02/M11 A3025 RMK A01 T10241107  RH  053%=      5-min Rain = 0
KFAS 120255Z 10002KT M03/M11 A3025 RMK A01 T10291106  RH  055%=      5-min Rain = 0
KFAS 120300Z 15002KT M04/M11 A3025 RMK A01 T10351108  RH  057%=      5-min Rain = 0
KFAS 120305Z 14002KT M04/M11 A3025 RMK A01 T10371109  RH  057%=      5-min Rain = 0
KFAS 120310Z 15002KT M04/M11 A3025 RMK A01 T10391109  RH  058%=      5-min Rain = 0
KFAS 120315Z 15002KT M04/M11 A3025 RMK A01 T10391108  RH  059%=      5-min Rain = 0
KFAS 120320Z 16002KT M04/M11 A3025 RMK A01 T10391107  RH  059%=      5-min Rain = 0
KFAS 120325Z 14002KT M04/M11 A3025 RMK A01 T10391110  RH  058%=      5-min Rain = 0
KFAS 120330Z 14001KT M04/M11 A3025 RMK A01 T10421111  RH  058%=      5-min Rain = 0
KFAS 120335Z 14001KT M04/M11 A3025 RMK A01 T10441110  RH  060%=      5-min Rain = 0
KFAS 120340Z 14000KT M05/M10 A3026 RMK A01 T10461100  RH  066%=      5-min Rain = 0
KFAS 120345Z 14000KT M05/M10 A3026 RMK A01 T10481101  RH  066%=      5-min Rain = 0
KFAS 120350Z 18000KT M05/M10 A3026 RMK A01 T10491101  RH  066%=      5-min Rain = 0
KFAS 120355Z 19001KT M05/M10 A3026 RMK A01 T10501103  RH  066%=      5-min Rain = 0
KFAS 120400Z 19000KT M05/M10 A3026 RMK A01 T10501104  RH  066%=      5-min Rain = 0
KFAS 120405Z 21001KT M05/M11 A3026 RMK A01 T10511105  RH  066%=      5-min Rain = 0
KFAS 120410Z 22002KT M05/M11 A3026 RMK A01 T10531105  RH  066%=      5-min Rain = 0
KFAS 120415Z 24002KT M06/M10 A3026 RMK A01 T10551104  RH  068%=      5-min Rain = 0
KFAS 120420Z 25001KT M06/M11 A3026 RMK A01 T10591108  RH  068%=      5-min Rain = 0
KFAS 120425Z 23001KT M06/M11 A3026 RMK A01 T10611109  RH  068%=      5-min Rain = 0
KFAS 120430Z 23002KT M06/M12 A3026 RMK A01 T10641118  RH  065%=      5-min Rain = 0
KFAS 120435Z 23002KT M07/M12 A3026 RMK A01 T10671122  RH  065%=      5-min Rain = 0
KFAS 120440Z 23002KT M07/M12 A3026 RMK A01 T10701121  RH  066%=      5-min Rain = 0
KFAS 120445Z 23002KT M07/M12 A3026 RMK A01 T10701123  RH  066%=      5-min Rain = 0
KFAS 120450Z 23002KT M08/M13 A3026 RMK A01 T10771127  RH  067%=      5-min Rain = 0
KFAS 120455Z 23002KT M07/M12 A3026 RMK A01 T10741120  RH  069%=      5-min Rain = 0
KFAS 120500Z 22002KT M07/M12 A3026 RMK A01 T10701120  RH  067%=      5-min Rain = 0
KFAS 120505Z 22002KT M08/M13 A3026 RMK A01 T10761128  RH  066%=      5-min Rain = 0
KFAS 120510Z 25003KT M08/M12 A3026 RMK A01 T10761122  RH  069%=      5-min Rain = 0
KFAS 120515Z 25002KT M07/M12 A3026 RMK A01 T10711119  RH  068%=      5-min Rain = 0
KFAS 120520Z 23002KT M07/M12 A3026 RMK A01 T10701121  RH  067%=      5-min Rain = 0
KFAS 120525Z 24002KT M07/M12 A3026 RMK A01 T10731123  RH  067%=      5-min Rain = 0
KFAS 120530Z 25002KT M07/M12 A3026 RMK A01 T10711120  RH  068%=      5-min Rain = 0
KFAS 120535Z 25002KT M07/M12 A3026 RMK A01 T10711120  RH  068%=      5-min Rain = 0
KFAS 120540Z 23002KT M07/M12 A3026 RMK A01 T10711120  RH  067%=      5-min Rain = 0
KFAS 120545Z 22001KT M07/M12 A3025 RMK A01 T10711122  RH  066%=      5-min Rain = 0
KFAS 120550Z 21001KT M07/M13 A3025 RMK A01 T10741125  RH  066%=      5-min Rain = 0
KFAS 120555Z 20002KT M08/M13 A3025 RMK A01 T10801131  RH  066%=      5-min Rain = 0

Page generated in 0.0116 seconds.